sensor_id;sensor_type;location;lat;lon;timestamp;pressure;altitude;pressure_sealevel;temperature;humidity
55994;BME280;67425;52.126;20.638;2023-04-05T00:01:19;57655.50;;;-144.78;43.85
55994;BME280;67425;52.126;20.638;2023-04-05T00:03:45;57665.88;;;-144.78;43.44
55994;BME280;67425;52.126;20.638;2023-04-05T00:06:11;57670.03;;;-144.78;43.91
55994;BME280;67425;52.126;20.638;2023-04-05T00:08:37;57676.25;;;-144.78;43.11
55994;BME280;67425;52.126;20.638;2023-04-05T00:11:02;57653.41;;;-144.78;43.99
55994;BME280;67425;52.126;20.638;2023-04-05T00:13:28;57670.03;;;-144.78;44.42
55994;BME280;67425;52.126;20.638;2023-04-05T00:15:53;57661.72;;;-144.78;44.10
55994;BME280;67425;52.126;20.638;2023-04-05T00:18:22;57663.78;;;-144.78;44.67
55994;BME280;67425;52.126;20.638;2023-04-05T00:20:51;57670.03;;;-144.78;44.32
55994;BME280;67425;52.126;20.638;2023-04-05T00:23:16;57665.88;;;-144.78;43.70
55994;BME280;67425;52.126;20.638;2023-04-05T00:25:42;57649.25;;;-144.78;42.78
55994;BME280;67425;52.126;20.638;2023-04-05T00:28:08;57640.94;;;-144.78;43.48
55994;BME280;67425;52.126;20.638;2023-04-05T00:30:33;57657.56;;;-144.78;43.44
55994;BME280;67425;52.126;20.638;2023-04-05T00:32:59;57651.34;;;-144.78;42.68
55994;BME280;67425;52.126;20.638;2023-04-05T00:35:28;57649.25;;;-144.78;42.92
55994;BME280;67425;52.126;20.638;2023-04-05T00:37:55;57663.78;;;-144.78;42.68
55994;BME280;67425;52.126;20.638;2023-04-05T00:40:20;57651.34;;;-144.78;43.38
55994;BME280;67425;52.126;20.638;2023-04-05T00:42:46;57643.03;;;-144.78;42.38
55994;BME280;67425;52.126;20.638;2023-04-05T00:45:12;57657.56;;;-144.78;43.13
55994;BME280;67425;52.126;20.638;2023-04-05T00:47:40;57663.78;;;-144.78;42.65
55994;BME280;67425;52.126;20.638;2023-04-05T00:50:06;57651.34;;;-144.78;42.57
55994;BME280;67425;52.126;20.638;2023-04-05T00:52:33;57678.34;;;-144.78;43.33
55994;BME280;67425;52.126;20.638;2023-04-05T00:54:58;57688.72;;;-144.78;44.32
55994;BME280;67425;52.126;20.638;2023-04-05T00:57:24;57694.94;;;-144.78;44.42
55994;BME280;67425;52.126;20.638;2023-04-05T00:59:50;57690.78;;;-144.78;44.46
55994;BME280;67425;52.126;20.638;2023-04-05T01:02:27;57663.78;;;-144.78;43.09
55994;BME280;67425;52.126;20.638;2023-04-05T01:04:59;57665.88;;;-144.78;43.22
55994;BME280;67425;52.126;20.638;2023-04-05T01:07:41;57690.78;;;-144.78;43.30
55994;BME280;67425;52.126;20.638;2023-04-05T01:10:12;57647.19;;;-144.78;43.14
55994;BME280;67425;52.126;20.638;2023-04-05T01:12:39;57697.03;;;-144.78;43.77
55994;BME280;67425;52.126;20.638;2023-04-05T01:15:06;57682.50;;;-144.78;43.91
55994;BME280;67425;52.126;20.638;2023-04-05T01:17:32;57686.63;;;-144.78;43.69
55994;BME280;67425;52.126;20.638;2023-04-05T01:20:05;57682.50;;;-144.78;43.64
55994;BME280;67425;52.126;20.638;2023-04-05T01:31:36;57688.72;;;-144.78;44.22
55994;BME280;67425;52.126;20.638;2023-04-05T01:36:53;57657.56;;;-144.78;43.13
55994;BME280;67425;52.126;20.638;2023-04-05T01:39:20;57674.19;;;-144.78;43.69
55994;BME280;67425;52.126;20.638;2023-04-05T01:41:47;57688.72;;;-144.78;44.19
55994;BME280;67425;52.126;20.638;2023-04-05T01:44:12;57676.25;;;-144.78;44.17
55994;BME280;67425;52.126;20.638;2023-04-05T01:46:38;57678.34;;;-144.78;42.61
55994;BME280;67425;52.126;20.638;2023-04-05T01:49:04;57684.56;;;-144.78;44.30
55994;BME280;67425;52.126;20.638;2023-04-05T01:51:29;57697.03;;;-144.78;44.15
55994;BME280;67425;52.126;20.638;2023-04-05T01:53:55;57697.03;;;-144.78;45.22
55994;BME280;67425;52.126;20.638;2023-04-05T01:56:20;57715.72;;;-144.78;45.38
55994;BME280;67425;52.126;20.638;2023-04-05T01:58:46;57667.94;;;-144.78;44.11
55994;BME280;67425;52.126;20.638;2023-04-05T02:01:11;57663.78;;;-144.78;43.86
55994;BME280;67425;52.126;20.638;2023-04-05T02:03:36;57672.09;;;-144.78;43.83
55994;BME280;67425;52.126;20.638;2023-04-05T02:06:02;57680.41;;;-144.78;44.53
55994;BME280;67425;52.126;20.638;2023-04-05T02:08:27;57701.19;;;-144.78;44.67
55994;BME280;67425;52.126;20.638;2023-04-05T02:10:53;57694.94;;;-144.78;44.47
55994;BME280;67425;52.126;20.638;2023-04-05T02:13:18;57692.88;;;-144.78;44.75
55994;BME280;67425;52.126;20.638;2023-04-05T02:15:47;57703.25;;;-144.78;45.20
55994;BME280;67425;52.126;20.638;2023-04-05T02:18:13;57672.09;;;-144.78;44.96
55994;BME280;67425;52.126;20.638;2023-04-05T02:20:38;57692.88;;;-144.78;43.44
55994;BME280;67425;52.126;20.638;2023-04-05T02:23:03;57694.94;;;-144.78;43.22
55994;BME280;67425;52.126;20.638;2023-04-05T02:25:29;57711.56;;;-144.78;44.80
55994;BME280;67425;52.126;20.638;2023-04-05T02:27:54;57697.03;;;-144.78;45.23
55994;BME280;67425;52.126;20.638;2023-04-05T02:30:20;57680.41;;;-144.78;44.57
55994;BME280;67425;52.126;20.638;2023-04-05T02:32:45;57692.88;;;-144.78;44.34
55994;BME280;67425;52.126;20.638;2023-04-05T02:35:11;57701.19;;;-144.78;44.46
55994;BME280;67425;52.126;20.638;2023-04-05T02:37:37;57694.94;;;-144.78;43.78
55994;BME280;67425;52.126;20.638;2023-04-05T02:40:06;57701.19;;;-144.78;44.15
55994;BME280;67425;52.126;20.638;2023-04-05T02:42:33;57692.88;;;-144.78;43.88
55994;BME280;67425;52.126;20.638;2023-04-05T02:44:59;57705.34;;;-144.78;44.28
55994;BME280;67425;52.126;20.638;2023-04-05T02:47:25;57709.50;;;-144.78;43.60
55994;BME280;67425;52.126;20.638;2023-04-05T02:49:50;57713.63;;;-144.78;43.73
55994;BME280;67425;52.126;20.638;2023-04-05T02:52:16;57713.63;;;-144.78;44.24
55994;BME280;67425;52.126;20.638;2023-04-05T02:54:41;57670.03;;;-144.78;44.16
55994;BME280;67425;52.126;20.638;2023-04-05T02:57:07;57709.50;;;-144.78;43.89
55994;BME280;67425;52.126;20.638;2023-04-05T02:59:36;57705.34;;;-144.78;43.67
55994;BME280;67425;52.126;20.638;2023-04-05T03:02:02;57680.41;;;-144.78;43.87
55994;BME280;67425;52.126;20.638;2023-04-05T03:04:27;57711.56;;;-144.78;44.28
55994;BME280;67425;52.126;20.638;2023-04-05T03:06:53;57703.25;;;-144.78;44.78
55994;BME280;67425;52.126;20.638;2023-04-05T03:09:21;57717.78;;;-144.78;45.25
55994;BME280;67425;52.126;20.638;2023-04-05T03:11:46;57676.25;;;-144.78;44.54
55994;BME280;67425;52.126;20.638;2023-04-05T03:14:12;57728.19;;;-144.78;45.52
55994;BME280;67425;52.126;20.638;2023-04-05T03:16:37;57699.09;;;-144.78;45.14
55994;BME280;67425;52.126;20.638;2023-04-05T03:19:05;57707.41;;;-144.78;44.19
55994;BME280;67425;52.126;20.638;2023-04-05T03:21:31;57688.72;;;-144.78;44.11
55994;BME280;67425;52.126;20.638;2023-04-05T03:23:58;57676.25;;;-144.78;45.50
55994;BME280;67425;52.126;20.638;2023-04-05T03:26:23;57678.34;;;-144.78;44.83
55994;BME280;67425;52.126;20.638;2023-04-05T03:28:49;57682.50;;;-144.78;45.21
55994;BME280;67425;52.126;20.638;2023-04-05T03:31:14;57686.63;;;-144.78;44.92
55994;BME280;67425;52.126;20.638;2023-04-05T03:33:39;57690.78;;;-144.78;44.67
55994;BME280;67425;52.126;20.638;2023-04-05T03:36:05;57653.41;;;-144.78;44.37
55994;BME280;67425;52.126;20.638;2023-04-05T03:38:30;57678.34;;;-144.78;45.71
55994;BME280;67425;52.126;20.638;2023-04-05T03:41:01;57674.19;;;-144.78;45.84
55994;BME280;67425;52.126;20.638;2023-04-05T03:43:26;57670.03;;;-144.78;45.03
55994;BME280;67425;52.126;20.638;2023-04-05T03:45:52;57670.03;;;-144.78;45.18
55994;BME280;67425;52.126;20.638;2023-04-05T03:48:17;57667.94;;;-144.78;45.36
55994;BME280;67425;52.126;20.638;2023-04-05T03:50:45;57678.34;;;-144.78;45.27
55994;BME280;67425;52.126;20.638;2023-04-05T03:53:10;57686.63;;;-144.78;45.41
55994;BME280;67425;52.126;20.638;2023-04-05T03:55:35;57643.03;;;-144.78;44.63
55994;BME280;67425;52.126;20.638;2023-04-05T03:58:01;57651.34;;;-144.78;45.59
55994;BME280;67425;52.126;20.638;2023-04-05T04:00:26;57630.56;;;-144.78;44.97
55994;BME280;67425;52.126;20.638;2023-04-05T04:02:52;57665.88;;;-144.78;45.44
55994;BME280;67425;52.126;20.638;2023-04-05T04:05:18;57653.41;;;-144.78;44.94
55994;BME280;67425;52.126;20.638;2023-04-05T04:07:43;57649.25;;;-144.78;44.75
55994;BME280;67425;52.126;20.638;2023-04-05T04:10:11;57640.94;;;-144.78;44.92
55994;BME280;67425;52.126;20.638;2023-04-05T04:12:37;57651.34;;;-144.78;44.63
55994;BME280;67425;52.126;20.638;2023-04-05T04:15:03;57676.25;;;-144.78;45.01
55994;BME280;67425;52.126;20.638;2023-04-05T04:17:31;57659.63;;;-144.78;45.48
55994;BME280;67425;52.126;20.638;2023-04-05T04:19:57;57665.88;;;-144.78;44.95
55994;BME280;67425;52.126;20.638;2023-04-05T04:22:24;57636.78;;;-144.78;44.48
55994;BME280;67425;52.126;20.638;2023-04-05T04:25:10;57640.94;;;-144.78;44.95
55994;BME280;67425;52.126;20.638;2023-04-05T04:27:40;57645.09;;;-144.78;44.76
55994;BME280;67425;52.126;20.638;2023-04-05T04:30:08;57653.41;;;-144.78;44.16
55994;BME280;67425;52.126;20.638;2023-04-05T04:32:35;57622.25;;;-144.78;44.60
55994;BME280;67425;52.126;20.638;2023-04-05T04:35:26;57626.41;;;-144.78;45.05
55994;BME280;67425;52.126;20.638;2023-04-05T04:40:30;57638.88;;;-144.78;45.53
55994;BME280;67425;52.126;20.638;2023-04-05T04:43:10;57618.09;;;-144.78;44.63
55994;BME280;67425;52.126;20.638;2023-04-05T04:45:39;57611.88;;;-144.78;44.57
55994;BME280;67425;52.126;20.638;2023-04-05T04:48:05;57634.72;;;-144.78;45.58
55994;BME280;67425;52.126;20.638;2023-04-05T04:50:30;57624.34;;;-144.78;45.29
55994;BME280;67425;52.126;20.638;2023-04-05T04:52:58;57622.25;;;-144.78;44.71
55994;BME280;67425;52.126;20.638;2023-04-05T04:55:23;57613.94;;;-144.78;46.19
55994;BME280;67425;52.126;20.638;2023-04-05T04:57:52;57624.34;;;-144.78;45.61
55994;BME280;67425;52.126;20.638;2023-04-05T05:00:19;57630.56;;;-144.78;46.59
55994;BME280;67425;52.126;20.638;2023-04-05T05:02:45;57589.03;;;-144.78;45.19
55994;BME280;67425;52.126;20.638;2023-04-05T05:05:11;57591.09;;;-144.78;44.31
55994;BME280;67425;52.126;20.638;2023-04-05T05:07:38;57607.72;;;-144.78;45.53
55994;BME280;67425;52.126;20.638;2023-04-05T05:10:06;57611.88;;;-144.78;44.90
55994;BME280;67425;52.126;20.638;2023-04-05T05:12:32;57603.56;;;-144.78;43.84
55994;BME280;67425;52.126;20.638;2023-04-05T05:14:57;57632.66;;;-144.78;45.52
55994;BME280;67425;52.126;20.638;2023-04-05T05:17:23;57570.34;;;-144.78;44.86
55994;BME280;67425;52.126;20.638;2023-04-05T05:19:49;57597.34;;;-144.78;45.16
55994;BME280;67425;52.126;20.638;2023-04-05T05:22:15;57578.66;;;-144.78;44.54
55994;BME280;67425;52.126;20.638;2023-04-05T05:24:40;57622.25;;;-144.78;46.28
55994;BME280;67425;52.126;20.638;2023-04-05T05:27:06;57643.03;;;-144.78;46.59
55994;BME280;67425;52.126;20.638;2023-04-05T05:29:32;57586.94;;;-144.78;45.04
55994;BME280;67425;52.126;20.638;2023-04-05T05:31:57;57597.34;;;-144.78;44.39
55994;BME280;67425;52.126;20.638;2023-04-05T05:34:22;57576.56;;;-144.78;43.23
55994;BME280;67425;52.126;20.638;2023-04-05T05:36:48;57555.81;;;-144.78;43.03
55994;BME280;67425;52.126;20.638;2023-04-05T05:39:15;57584.88;;;-144.78;43.88
55994;BME280;67425;52.126;20.638;2023-04-05T05:41:41;57601.50;;;-144.78;44.48
55994;BME280;67425;52.126;20.638;2023-04-05T05:44:06;57593.19;;;-144.78;44.93
55994;BME280;67425;52.126;20.638;2023-04-05T05:46:31;57572.41;;;-144.78;44.66
55994;BME280;67425;52.126;20.638;2023-04-05T05:48:57;57553.72;;;-144.78;43.71
55994;BME280;67425;52.126;20.638;2023-04-05T05:51:22;57572.41;;;-144.78;43.20
55994;BME280;67425;52.126;20.638;2023-04-05T05:53:47;57582.81;;;-144.78;43.99
55994;BME280;67425;52.126;20.638;2023-04-05T05:56:13;57541.25;;;-144.78;43.61
55994;BME280;67425;52.126;20.638;2023-04-05T05:58:38;57551.66;;;-144.78;43.29
55994;BME280;67425;52.126;20.638;2023-04-05T06:01:05;57555.81;;;-144.78;43.42
55994;BME280;67425;52.126;20.638;2023-04-05T06:03:31;57589.03;;;-144.78;44.51
55994;BME280;67425;52.126;20.638;2023-04-05T06:05:58;57589.03;;;-144.78;45.61
55994;BME280;67425;52.126;20.638;2023-04-05T06:08:24;57584.88;;;-144.78;45.04
55994;BME280;67425;52.126;20.638;2023-04-05T06:10:52;57580.72;;;-144.78;44.89
55994;BME280;67425;52.126;20.638;2023-04-05T06:13:17;57557.88;;;-144.78;43.96
55994;BME280;67425;52.126;20.638;2023-04-05T06:15:43;57541.25;;;-144.78;43.67
55994;BME280;67425;52.126;20.638;2023-04-05T06:18:09;57530.88;;;-144.78;43.56
55994;BME280;67425;52.126;20.638;2023-04-05T06:20:34;57547.50;;;-144.78;43.85
55994;BME280;67425;52.126;20.638;2023-04-05T06:23:04;57539.19;;;-144.78;43.62
55994;BME280;67425;52.126;20.638;2023-04-05T06:25:30;57535.03;;;-144.78;43.45
55994;BME280;67425;52.126;20.638;2023-04-05T06:27:55;57526.72;;;-144.78;42.64
55994;BME280;67425;52.126;20.638;2023-04-05T06:30:21;57530.88;;;-144.78;43.50
55994;BME280;67425;52.126;20.638;2023-04-05T06:32:46;57524.66;;;-144.78;43.08
55994;BME280;67425;52.126;20.638;2023-04-05T06:35:12;57545.41;;;-144.78;42.84
55994;BME280;67425;52.126;20.638;2023-04-05T06:37:38;57541.25;;;-144.78;42.37
55994;BME280;67425;52.126;20.638;2023-04-05T06:40:03;57530.88;;;-144.78;42.08
55994;BME280;67425;52.126;20.638;2023-04-05T06:42:29;57518.41;;;-144.78;42.10
55994;BME280;67425;52.126;20.638;2023-04-05T06:44:54;57516.34;;;-144.78;42.27
55994;BME280;67425;52.126;20.638;2023-04-05T06:47:20;57518.41;;;-144.78;42.85
55994;BME280;67425;52.126;20.638;2023-04-05T06:49:45;57528.81;;;-144.78;42.69
55994;BME280;67425;52.126;20.638;2023-04-05T06:52:10;57505.97;;;-144.78;42.74
55994;BME280;67425;52.126;20.638;2023-04-05T06:54:36;57535.03;;;-144.78;42.08
55994;BME280;67425;52.126;20.638;2023-04-05T06:57:02;57545.41;;;-144.78;42.78
55994;BME280;67425;52.126;20.638;2023-04-05T06:59:28;57526.72;;;-144.78;42.91
55994;BME280;67425;52.126;20.638;2023-04-05T07:01:54;57520.50;;;-144.78;42.05
55994;BME280;67425;52.126;20.638;2023-04-05T07:04:20;57516.34;;;-144.78;43.44
55994;BME280;67425;52.126;20.638;2023-04-05T07:06:45;57518.41;;;-144.78;43.58
55994;BME280;67425;52.126;20.638;2023-04-05T07:09:11;57485.19;;;-144.78;42.96
55994;BME280;67425;52.126;20.638;2023-04-05T07:11:36;57522.56;;;-144.78;42.72
55994;BME280;67425;52.126;20.638;2023-04-05T07:14:03;57532.97;;;-144.78;43.15
55994;BME280;67425;52.126;20.638;2023-04-05T07:16:28;57508.03;;;-144.78;42.84
55994;BME280;67425;52.126;20.638;2023-04-05T07:18:55;57512.19;;;-144.78;42.98
55994;BME280;67425;52.126;20.638;2023-04-05T07:21:20;57514.25;;;-144.78;43.00
55994;BME280;67425;52.126;20.638;2023-04-05T07:23:47;57510.13;;;-144.78;42.74
55994;BME280;67425;52.126;20.638;2023-04-05T07:26:12;57503.88;;;-144.78;42.63
55994;BME280;67425;52.126;20.638;2023-04-05T07:28:38;57505.97;;;-144.78;42.45
55994;BME280;67425;52.126;20.638;2023-04-05T07:31:05;57503.88;;;-144.78;42.07
55994;BME280;67425;52.126;20.638;2023-04-05T07:33:30;57485.19;;;-144.78;42.61
55994;BME280;67425;52.126;20.638;2023-04-05T07:35:56;57535.03;;;-144.78;42.89
55994;BME280;67425;52.126;20.638;2023-04-05T07:38:22;57512.19;;;-144.78;41.95
55994;BME280;67425;52.126;20.638;2023-04-05T07:40:48;57499.72;;;-144.78;42.34
55994;BME280;67425;52.126;20.638;2023-04-05T07:43:14;57495.56;;;-144.78;42.18
55994;BME280;67425;52.126;20.638;2023-04-05T07:45:39;57503.88;;;-144.78;42.34
55994;BME280;67425;52.126;20.638;2023-04-05T07:48:04;57510.13;;;-144.78;43.39
55994;BME280;67425;52.126;20.638;2023-04-05T07:50:30;57499.72;;;-144.78;42.65
55994;BME280;67425;52.126;20.638;2023-04-05T07:52:55;57518.41;;;-144.78;43.06
55994;BME280;67425;52.126;20.638;2023-04-05T07:55:20;57499.72;;;-144.78;43.50
55994;BME280;67425;52.126;20.638;2023-04-05T07:57:46;57483.13;;;-144.78;42.81
55994;BME280;67425;52.126;20.638;2023-04-05T08:00:11;57483.13;;;-144.78;41.78
55994;BME280;67425;52.126;20.638;2023-04-05T08:02:37;57472.72;;;-144.78;41.84
55994;BME280;67425;52.126;20.638;2023-04-05T08:05:03;57510.13;;;-144.78;42.87
55994;BME280;67425;52.126;20.638;2023-04-05T08:07:29;57501.81;;;-144.78;43.15
55994;BME280;67425;52.126;20.638;2023-04-05T08:09:54;57470.66;;;-144.78;41.52
55994;BME280;67425;52.126;20.638;2023-04-05T08:12:22;57456.13;;;-144.78;41.13
55994;BME280;67425;52.126;20.638;2023-04-05T08:14:48;57478.97;;;-144.78;41.57
55994;BME280;67425;52.126;20.638;2023-04-05T08:17:14;57445.72;;;-144.78;42.06
55994;BME280;67425;52.126;20.638;2023-04-05T08:19:40;57456.13;;;-144.78;41.67
55994;BME280;67425;52.126;20.638;2023-04-05T08:22:05;57474.81;;;-144.78;41.45
55994;BME280;67425;52.126;20.638;2023-04-05T08:24:31;57451.97;;;-144.78;42.19
55994;BME280;67425;52.126;20.638;2023-04-05T08:26:56;57449.88;;;-144.78;40.59
55994;BME280;67425;52.126;20.638;2023-04-05T08:29:21;57420.81;;;-144.78;40.39
55994;BME280;67425;52.126;20.638;2023-04-05T08:31:47;57445.72;;;-144.78;40.97
55994;BME280;67425;52.126;20.638;2023-04-05T08:34:12;57445.72;;;-144.78;40.47
55994;BME280;67425;52.126;20.638;2023-04-05T08:36:37;57445.72;;;-144.78;40.77
55994;BME280;67425;52.126;20.638;2023-04-05T08:39:03;57447.81;;;-144.78;40.54
55994;BME280;67425;52.126;20.638;2023-04-05T08:41:40;57420.81;;;-144.78;39.09
55994;BME280;67425;52.126;20.638;2023-04-05T08:44:08;57424.97;;;-144.78;37.88
55994;BME280;67425;52.126;20.638;2023-04-05T08:46:34;57412.50;;;-144.78;38.77
55994;BME280;67425;52.126;20.638;2023-04-05T08:49:07;57408.34;;;-144.78;39.22
55994;BME280;67425;52.126;20.638;2023-04-05T08:51:36;57414.59;;;-144.78;38.59
55994;BME280;67425;52.126;20.638;2023-04-05T08:54:03;57404.19;;;-144.78;38.55
55994;BME280;67425;52.126;20.638;2023-04-05T08:56:33;57447.81;;;-144.78;38.47
55994;BME280;67425;52.126;20.638;2023-04-05T08:59:04;57427.03;;;-144.78;37.62
55994;BME280;67425;52.126;20.638;2023-04-05T09:01:31;57429.13;;;-144.78;37.31
55994;BME280;67425;52.126;20.638;2023-04-05T09:04:22;57420.81;;;-144.78;37.71
55994;BME280;67425;52.126;20.638;2023-04-05T09:06:48;57420.81;;;-144.78;37.58
55994;BME280;67425;52.126;20.638;2023-04-05T09:09:14;57416.66;;;-144.78;36.23
55994;BME280;67425;52.126;20.638;2023-04-05T09:11:42;57422.88;;;-144.78;35.55
55994;BME280;67425;52.126;20.638;2023-04-05T09:14:07;57526.72;;;-144.78;38.20
55994;BME280;67425;52.126;20.638;2023-04-05T09:16:40;57503.88;;;-144.78;38.41
55994;BME280;67425;52.126;20.638;2023-04-05T09:19:06;57487.28;;;-144.78;38.05
55994;BME280;67425;52.126;20.638;2023-04-05T09:24:37;57464.41;;;-144.78;36.80
55994;BME280;67425;52.126;20.638;2023-04-05T09:27:12;57439.50;;;-144.78;36.38
55994;BME280;67425;52.126;20.638;2023-04-05T09:29:39;57439.50;;;-144.78;35.67
55994;BME280;67425;52.126;20.638;2023-04-05T09:32:07;57491.41;;;-144.78;36.16
55994;BME280;67425;52.126;20.638;2023-04-05T09:34:33;57518.41;;;-144.78;37.42
55994;BME280;67425;52.126;20.638;2023-04-05T09:37:01;57535.03;;;-144.78;37.49
55994;BME280;67425;52.126;20.638;2023-04-05T09:39:29;57505.97;;;-144.78;38.36
55994;BME280;67425;52.126;20.638;2023-04-05T09:47:32;57487.28;;;-144.78;35.71
55994;BME280;67425;52.126;20.638;2023-04-05T09:50:02;57539.19;;;-144.78;35.13
55994;BME280;67425;52.126;20.638;2023-04-05T09:52:31;57530.88;;;-144.78;36.71
55994;BME280;67425;52.126;20.638;2023-04-05T09:55:00;57528.81;;;-144.78;36.30
55994;BME280;67425;52.126;20.638;2023-04-05T09:57:27;57468.56;;;-144.78;35.36
55994;BME280;67425;52.126;20.638;2023-04-05T09:59:54;57547.50;;;-144.78;35.98
55994;BME280;67425;52.126;20.638;2023-04-05T10:02:23;57516.34;;;-144.78;35.34
55994;BME280;67425;52.126;20.638;2023-04-05T10:04:48;57508.03;;;-144.78;34.79
55994;BME280;67425;52.126;20.638;2023-04-05T10:07:15;57464.41;;;-144.78;33.93
55994;BME280;67425;52.126;20.638;2023-04-05T10:09:41;57485.19;;;-144.78;33.74
55994;BME280;67425;52.126;20.638;2023-04-05T10:12:08;57437.44;;;-144.78;33.13
55994;BME280;67425;52.126;20.638;2023-04-05T10:14:34;57422.88;;;-144.78;33.32
55994;BME280;67425;52.126;20.638;2023-04-05T10:27:48;57468.56;;;-144.78;33.41
55994;BME280;67425;52.126;20.638;2023-04-05T10:30:16;57516.34;;;-144.78;33.80
55994;BME280;67425;52.126;20.638;2023-04-05T10:38:27;57503.88;;;-144.78;34.13
55994;BME280;67425;52.126;20.638;2023-04-05T10:41:08;57433.28;;;-144.78;33.06
55994;BME280;67425;52.126;20.638;2023-04-05T10:43:36;57418.72;;;-144.78;32.24
55994;BME280;67425;52.126;20.638;2023-04-05T10:46:03;57439.50;;;-144.78;33.13
55994;BME280;67425;52.126;20.638;2023-04-05T10:50:55;57410.44;;;-144.78;32.04
55994;BME280;67425;52.126;20.638;2023-04-05T10:53:22;57422.88;;;-144.78;31.91
55994;BME280;67425;52.126;20.638;2023-04-05T10:55:48;57433.28;;;-144.78;31.92
55994;BME280;67425;52.126;20.638;2023-04-05T10:58:15;57468.56;;;-144.78;33.29
55994;BME280;67425;52.126;20.638;2023-04-05T11:00:41;57485.19;;;-144.78;33.26
55994;BME280;67425;52.126;20.638;2023-04-05T11:03:06;57460.28;;;-144.78;32.35
55994;BME280;67425;52.126;20.638;2023-04-05T11:05:34;57422.88;;;-144.78;32.53
55994;BME280;67425;52.126;20.638;2023-04-05T11:08:07;57408.34;;;-144.78;32.13
55994;BME280;67425;52.126;20.638;2023-04-05T11:10:37;57435.34;;;-144.78;32.16
55994;BME280;67425;52.126;20.638;2023-04-05T11:13:04;57437.44;;;-144.78;32.55
55994;BME280;67425;52.126;20.638;2023-04-05T11:15:31;57420.81;;;-144.78;31.71
55994;BME280;67425;52.126;20.638;2023-04-05T11:23:08;57429.13;;;-144.78;33.08
55994;BME280;67425;52.126;20.638;2023-04-05T11:25:38;57416.66;;;-144.78;32.47
55994;BME280;67425;52.126;20.638;2023-04-05T11:28:04;57397.97;;;-144.78;32.07
55994;BME280;67425;52.126;20.638;2023-04-05T11:30:49;57416.66;;;-144.78;30.89
55994;BME280;67425;52.126;20.638;2023-04-05T11:41:47;57364.75;;;-144.78;30.81
55994;BME280;67425;52.126;20.638;2023-04-05T11:44:17;57381.34;;;-144.78;30.52
55994;BME280;67425;52.126;20.638;2023-04-05T11:46:45;57354.34;;;-144.78;30.67
55994;BME280;67425;52.126;20.638;2023-04-05T11:49:12;57368.91;;;-144.78;30.27
55994;BME280;67425;52.126;20.638;2023-04-05T11:51:39;57362.66;;;-144.78;30.32
55994;BME280;67425;52.126;20.638;2023-04-05T11:54:09;57389.66;;;-144.78;29.32
55994;BME280;67425;52.126;20.638;2023-04-05T11:56:35;57348.13;;;-144.78;29.45
55994;BME280;67425;52.126;20.638;2023-04-05T11:59:01;57329.44;;;-144.78;29.44
55994;BME280;67425;52.126;20.638;2023-04-05T12:01:27;57314.91;;;-144.78;29.21
55994;BME280;67425;52.126;20.638;2023-04-05T12:03:53;57316.97;;;-144.78;30.76
55994;BME280;67425;52.126;20.638;2023-04-05T12:06:21;57319.06;;;-144.78;29.88
55994;BME280;67425;52.126;20.638;2023-04-05T12:08:47;57352.28;;;-144.78;29.52
55994;BME280;67425;52.126;20.638;2023-04-05T12:11:25;57383.44;;;-144.78;30.49
55994;BME280;67425;52.126;20.638;2023-04-05T12:14:00;57400.03;;;-144.78;30.81
55994;BME280;67425;52.126;20.638;2023-04-05T12:16:27;57408.34;;;-144.78;31.00
55994;BME280;67425;52.126;20.638;2023-04-05T12:18:56;57346.06;;;-144.78;30.74
55994;BME280;67425;52.126;20.638;2023-04-05T12:21:22;57358.50;;;-144.78;29.96
55994;BME280;67425;52.126;20.638;2023-04-05T12:23:51;57354.34;;;-144.78;30.21
55994;BME280;67425;52.126;20.638;2023-04-05T12:26:17;57341.91;;;-144.78;29.84
55994;BME280;67425;52.126;20.638;2023-04-05T12:31:15;57385.50;;;-144.78;30.38
55994;BME280;67425;52.126;20.638;2023-04-05T12:33:42;57408.34;;;-144.78;30.69
55994;BME280;67425;52.126;20.638;2023-04-05T12:36:08;57348.13;;;-144.78;30.12
55994;BME280;67425;52.126;20.638;2023-04-05T12:38:35;57408.34;;;-144.78;31.09
55994;BME280;67425;52.126;20.638;2023-04-05T12:41:02;57437.44;;;-144.78;31.22
55994;BME280;67425;52.126;20.638;2023-04-05T12:43:39;57391.75;;;-144.78;30.91
55994;BME280;67425;52.126;20.638;2023-04-05T12:46:08;57464.41;;;-144.78;32.33
55994;BME280;67425;52.126;20.638;2023-04-05T12:48:36;57447.81;;;-144.78;31.43
55994;BME280;67425;52.126;20.638;2023-04-05T12:51:02;57429.13;;;-144.78;31.04
55994;BME280;67425;52.126;20.638;2023-04-05T12:53:29;57431.19;;;-144.78;31.44
55994;BME280;67425;52.126;20.638;2023-04-05T12:55:55;57410.44;;;-144.78;31.15
55994;BME280;67425;52.126;20.638;2023-04-05T12:58:32;57410.44;;;-144.78;30.99
55994;BME280;67425;52.126;20.638;2023-04-05T13:01:01;57402.13;;;-144.78;30.60
55994;BME280;67425;52.126;20.638;2023-04-05T13:03:27;57410.44;;;-144.78;30.81
55994;BME280;67425;52.126;20.638;2023-04-05T13:05:52;57364.75;;;-144.78;32.00
55994;BME280;67425;52.126;20.638;2023-04-05T13:08:18;57416.66;;;-144.78;32.09
55994;BME280;67425;52.126;20.638;2023-04-05T13:10:47;57435.34;;;-144.78;32.17
55994;BME280;67425;52.126;20.638;2023-04-05T13:13:14;57493.50;;;-144.78;32.91
55994;BME280;67425;52.126;20.638;2023-04-05T13:15:40;57418.72;;;-144.78;32.17
55994;BME280;67425;52.126;20.638;2023-04-05T13:18:05;57414.59;;;-144.78;31.14
55994;BME280;67425;52.126;20.638;2023-04-05T13:20:31;57449.88;;;-144.78;31.35
55994;BME280;67425;52.126;20.638;2023-04-05T13:22:56;57458.19;;;-144.78;31.56
55994;BME280;67425;52.126;20.638;2023-04-05T13:25:22;57447.81;;;-144.78;31.79
55994;BME280;67425;52.126;20.638;2023-04-05T13:27:47;57408.34;;;-144.78;31.17